createdAt,value
2023-04-26T00:00:50.698Z,94052.97
2023-04-26T00:03:17.708Z,94053.78
2023-04-26T00:05:44.594Z,94052.16
2023-04-26T00:08:11.500Z,94053.72
2023-04-26T00:10:40.426Z,94045.19
2023-04-26T00:13:08.319Z,94039.84
2023-04-26T00:15:35.576Z,94034.53
2023-04-26T00:18:02.320Z,94026.50
2023-04-26T00:20:29.225Z,94026.50
2023-04-26T00:22:55.955Z,94024.63
2023-04-26T00:25:22.828Z,94030.19
2023-04-26T00:27:50.076Z,94030.19
2023-04-26T00:30:16.940Z,94033.38
2023-04-26T00:32:43.883Z,94021.38
2023-04-26T00:35:10.941Z,94020.81
2023-04-26T00:37:37.704Z,94014.97
2023-04-26T00:40:06.346Z,94016.00
2023-04-26T00:42:33.130Z,94015.50
2023-04-26T00:44:59.930Z,94009.88
2023-04-26T00:47:26.961Z,94014.91
2023-04-26T00:49:53.744Z,94017.28
2023-04-26T00:52:20.673Z,94018.09
2023-04-26T00:54:48.817Z,94016.19
2023-04-26T00:57:15.531Z,94019.38
2023-04-26T00:59:42.521Z,94018.81
2023-04-26T01:02:09.426Z,94019.38
2023-04-26T01:04:37.297Z,94016.97
2023-04-26T01:07:04.091Z,94017.22
2023-04-26T01:09:33.457Z,94023.59
2023-04-26T01:12:00.866Z,94030.28
2023-04-26T01:14:28.193Z,94031.06
2023-04-26T01:16:56.784Z,94030.53
2023-04-26T01:19:23.487Z,94029.44
2023-04-26T01:21:50.503Z,93948.06
2023-04-26T01:24:17.352Z,94014.75
2023-04-26T01:26:45.688Z,94005.94
2023-04-26T01:29:18.065Z,94006.44
2023-04-26T01:31:45.210Z,94005.38
2023-04-26T01:34:12.124Z,94005.91
2023-04-26T01:36:39.132Z,94010.66
2023-04-26T01:39:06.410Z,94014.38
2023-04-26T01:41:33.736Z,94010.91
2023-04-26T01:44:01.413Z,94008.25
2023-04-26T01:46:28.443Z,94009.06
2023-04-26T01:48:55.325Z,94027.19
2023-04-26T01:51:23.021Z,94023.47
2023-04-26T01:53:49.869Z,94014.47
2023-04-26T01:56:16.766Z,94014.50
2023-04-26T01:58:43.558Z,94014.53
2023-04-26T02:01:11.269Z,94012.16
2023-04-26T02:03:38.166Z,94007.63
2023-04-26T02:06:05.145Z,93870.47
2023-04-26T02:08:31.919Z,94000.16
2023-04-26T02:10:58.718Z,94002.28
2023-04-26T02:13:26.016Z,94004.88
2023-04-26T02:15:53.914Z,94000.88
2023-04-26T02:18:22.654Z,94002.72
2023-04-26T02:20:50.723Z,93991.78
2023-04-26T02:23:17.566Z,93996.56
2023-04-26T02:25:47.632Z,93998.94
2023-04-26T02:28:16.291Z,93993.63
2023-04-26T02:30:43.277Z,93994.72
2023-04-26T02:33:10.266Z,93989.69
2023-04-26T02:35:37.533Z,93994.50
2023-04-26T02:38:04.686Z,94002.28
2023-04-26T02:40:31.536Z,93999.91
2023-04-26T02:42:58.487Z,94002.84
2023-04-26T02:45:25.282Z,94003.44
2023-04-26T02:47:53.233Z,93997.06
2023-04-26T02:50:20.269Z,93987.75
2023-04-26T02:52:49.515Z,93989.34
2023-04-26T02:55:16.280Z,93981.63
2023-04-26T02:57:43.623Z,93980.59
2023-04-26T03:00:14.110Z,93974.75
2023-04-26T03:02:41.914Z,93981.19
2023-04-26T03:05:09.657Z,93983.34
2023-04-26T03:07:36.886Z,93979.34
2023-04-26T03:10:04.915Z,93984.94
2023-04-26T03:12:32.279Z,93981.75
2023-04-26T03:15:00.346Z,93983.59
2023-04-26T03:17:27.408Z,93984.41
2023-04-26T03:19:54.491Z,93971.91
2023-04-26T03:22:21.258Z,93978.03
2023-04-26T03:24:49.235Z,93978.03
2023-04-26T03:27:16.685Z,93975.09
2023-04-26T03:29:44.820Z,93965.50
2023-04-26T03:32:11.716Z,93923.63
2023-04-26T03:34:38.578Z,93973.25
2023-04-26T03:37:05.535Z,93978.84
2023-04-26T03:39:32.578Z,93979.91
2023-04-26T03:41:59.285Z,93982.59
2023-04-26T03:44:26.238Z,93983.13
2023-04-26T03:46:56.711Z,93977.56
2023-04-26T03:49:23.878Z,93979.94
2023-04-26T03:51:50.804Z,93987.19
2023-04-26T03:54:18.829Z,93987.44
2023-04-26T03:56:45.783Z,93991.97
2023-04-26T03:59:12.580Z,93992.50
2023-04-26T04:01:39.348Z,94000.47
2023-04-26T04:04:06.431Z,93997.00
2023-04-26T04:06:33.282Z,93991.66
2023-04-26T04:09:01.211Z,93994.31
2023-04-26T04:11:27.939Z,93991.66
2023-04-26T04:13:55.077Z,94002.06
2023-04-26T04:16:22.024Z,94005.00
2023-04-26T04:18:49.331Z,94009.00
2023-04-26T04:21:16.531Z,94011.94
2023-04-26T04:23:44.367Z,94012.72
2023-04-26T04:26:12.674Z,94015.13
2023-04-26T04:28:41.595Z,94004.13
2023-04-26T04:31:11.411Z,94010.81
2023-04-26T04:33:38.345Z,94018.28
2023-04-26T04:36:06.853Z,94020.38
2023-04-26T04:38:33.694Z,94016.03
2023-04-26T04:41:03.017Z,94014.94
2023-04-26T04:43:30.286Z,94015.66
2023-04-26T04:45:58.541Z,94023.06
2023-04-26T04:48:25.507Z,94022.53
2023-04-26T04:50:52.789Z,94023.09
2023-04-26T04:53:19.650Z,94028.97
2023-04-26T04:55:46.689Z,94022.56
2023-04-26T04:58:15.447Z,94021.09
2023-04-26T05:00:43.618Z,94018.88
2023-04-26T05:03:21.240Z,94028.44
2023-04-26T05:05:48.609Z,94025.97
2023-04-26T05:08:15.495Z,94027.88
2023-04-26T05:10:42.377Z,94020.81
2023-04-26T05:13:09.681Z,94027.69
2023-04-26T05:15:37.208Z,94025.47
2023-04-26T05:18:04.417Z,94023.31
2023-04-26T05:20:32.546Z,94018.94
2023-04-26T05:23:00.052Z,94028.75
2023-04-26T05:25:27.583Z,94023.06
2023-04-26T05:28:00.982Z,94028.88
2023-04-26T05:30:54.034Z,94035.59
2023-04-26T05:33:37.444Z,94044.44
2023-04-26T05:36:29.951Z,94037.59
2023-04-26T05:38:57.311Z,94038.81
2023-04-26T05:41:23.985Z,94044.25
2023-04-26T05:43:51.316Z,94042.31
2023-04-26T05:46:18.853Z,94048.03
2023-04-26T05:48:46.286Z,94056.47
2023-04-26T05:51:13.189Z,94050.38
2023-04-26T05:53:39.939Z,94051.28
2023-04-26T05:56:07.594Z,94056.72
2023-04-26T05:58:34.919Z,94052.44
2023-04-26T06:01:03.168Z,94051.84
2023-04-26T06:03:30.866Z,94053.88
2023-04-26T06:05:59.366Z,94055.31
2023-04-26T06:08:28.416Z,94052.78
2023-04-26T06:10:56.516Z,94050.84
2023-04-26T06:13:23.355Z,94051.13
2023-04-26T06:15:50.394Z,94053.13
2023-04-26T06:18:17.094Z,94052.06
2023-04-26T06:20:46.664Z,94055.34
2023-04-26T06:23:13.875Z,94051.88
2023-04-26T06:25:44.932Z,94054.50
2023-04-26T06:28:19.892Z,94051.28
2023-04-26T06:30:46.870Z,94057.69
2023-04-26T06:33:14.572Z,94056.28
2023-04-26T06:35:42.665Z,94056.88
2023-04-26T06:38:12.745Z,94058.59
2023-04-26T06:40:39.771Z,94052.50
2023-04-26T06:43:06.655Z,94055.00
2023-04-26T06:46:07.625Z,94065.34
2023-04-26T06:48:34.520Z,94068.16
2023-04-26T06:51:07.114Z,94069.34
2023-04-26T06:53:34.327Z,94065.34
2023-04-26T06:56:01.049Z,94071.28
2023-04-26T06:58:27.906Z,94066.91
2023-04-26T07:00:54.693Z,94067.06
2023-04-26T07:03:21.866Z,94068.19
2023-04-26T07:05:48.819Z,94072.75
2023-04-26T07:08:15.930Z,94070.28
2023-04-26T07:10:42.963Z,94073.19
2023-04-26T07:13:09.942Z,94074.34
2023-04-26T07:15:36.779Z,94074.84
2023-04-26T07:18:03.718Z,94072.47
2023-04-26T07:20:30.508Z,94072.50
2023-04-26T07:22:57.528Z,94076.31
2023-04-26T07:25:24.263Z,94073.56
2023-04-26T07:27:52.134Z,94075.72
2023-04-26T07:30:18.859Z,94072.41
2023-04-26T07:32:45.935Z,94068.88
2023-04-26T07:35:16.286Z,94069.81
2023-04-26T07:37:44.028Z,94084.59
2023-04-26T07:40:11.590Z,94088.28
2023-04-26T07:42:38.435Z,94089.03
2023-04-26T07:45:05.473Z,94090.81
2023-04-26T07:47:32.463Z,94092.44
2023-04-26T07:49:59.267Z,94095.78
2023-04-26T07:52:26.221Z,94107.00
2023-04-26T07:54:53.064Z,94106.13
2023-04-26T07:57:19.961Z,94105.38
2023-04-26T07:59:46.638Z,94098.19
2023-04-26T08:02:13.664Z,94100.59
2023-04-26T08:04:48.369Z,94101.28
2023-04-26T08:07:16.066Z,94099.44
2023-04-26T08:09:42.781Z,94100.88
2023-04-26T08:12:09.633Z,94095.03
2023-04-26T08:14:36.903Z,94097.13
2023-04-26T08:17:05.347Z,94104.56
2023-04-26T08:19:33.482Z,94097.47
2023-04-26T08:22:00.462Z,94099.44
2023-04-26T08:24:27.446Z,94090.50
2023-04-26T08:26:55.040Z,94089.09
2023-04-26T08:29:22.966Z,94088.81
2023-04-26T08:31:49.759Z,94086.16
2023-04-26T08:34:16.686Z,94094.78
2023-04-26T08:36:43.892Z,94096.94
2023-04-26T08:39:12.348Z,94090.41
2023-04-26T08:41:43.656Z,94092.47
2023-04-26T08:44:11.051Z,94091.66
2023-04-26T08:46:52.523Z,94092.78
2023-04-26T08:49:25.319Z,94096.69
2023-04-26T08:51:53.966Z,94090.88
2023-04-26T08:54:21.970Z,94079.44
2023-04-26T08:56:49.448Z,94086.09
2023-04-26T08:59:16.478Z,94085.28
2023-04-26T09:01:44.412Z,94091.50
2023-04-26T09:04:12.442Z,94095.03
2023-04-26T09:06:39.768Z,94097.06
2023-04-26T09:09:08.852Z,94102.72
2023-04-26T09:11:55.378Z,94094.44
2023-04-26T09:14:22.664Z,94101.13
2023-04-26T09:16:49.871Z,94107.03
2023-04-26T09:19:17.014Z,94086.78
2023-04-26T09:21:46.451Z,94098.72
2023-04-26T09:24:14.130Z,94075.84
2023-04-26T09:26:41.996Z,94090.88
2023-04-26T09:29:13.769Z,94100.66
2023-04-26T09:31:42.091Z,94100.56
2023-04-26T09:34:10.727Z,94104.34
2023-04-26T09:36:48.760Z,94096.94
2023-04-26T09:39:29.446Z,94100.41
2023-04-26T09:41:57.458Z,94093.53
2023-04-26T09:44:25.231Z,94093.22
2023-04-26T09:47:10.308Z,94084.25
2023-04-26T09:49:51.998Z,94088.72
2023-04-26T09:52:20.167Z,94078.13
2023-04-26T09:54:52.421Z,94083.13
2023-04-26T09:57:20.766Z,94077.66
2023-04-26T09:59:54.968Z,94078.78
2023-04-26T10:02:26.594Z,94074.91
2023-04-26T10:04:55.720Z,94083.97
2023-04-26T10:07:25.966Z,94087.25
2023-04-26T10:09:53.758Z,94083.78
2023-04-26T10:12:20.870Z,94076.94
2023-04-26T10:14:48.416Z,94087.72
2023-04-26T10:17:15.465Z,94074.63
2023-04-26T10:19:46.488Z,94066.09
2023-04-26T10:22:18.058Z,94069.66
2023-04-26T10:24:45.170Z,94067.66
2023-04-26T10:27:13.497Z,94074.44
2023-04-26T10:29:55.235Z,94077.59
2023-04-26T10:32:22.714Z,94077.66
2023-04-26T10:35:08.195Z,94073.38
2023-04-26T10:37:35.232Z,94068.94
2023-04-26T10:40:20.880Z,94071.22
2023-04-26T10:42:47.901Z,94069.63
2023-04-26T10:45:28.080Z,94086.72
2023-04-26T10:48:18.353Z,94071.72
2023-04-26T10:51:08.466Z,94061.59
2023-04-26T10:53:35.317Z,94062.13
2023-04-26T10:56:02.095Z,94068.00
2023-04-26T10:58:30.572Z,94069.28
2023-04-26T11:01:04.702Z,94064.25
2023-04-26T11:03:32.131Z,94058.72
2023-04-26T11:05:59.074Z,94057.63
2023-04-26T11:08:27.271Z,94055.75
2023-04-26T11:11:03.278Z,94066.03
2023-04-26T11:13:33.722Z,94062.66
2023-04-26T11:16:04.277Z,94066.16
2023-04-26T11:18:31.775Z,94072.06
2023-04-26T11:20:58.899Z,94068.31
2023-04-26T11:23:27.385Z,94063.66
2023-04-26T11:25:55.155Z,94062.84
2023-04-26T11:28:23.424Z,94060.31
2023-04-26T11:30:50.638Z,94073.22
2023-04-26T11:33:24.833Z,94066.78
2023-04-26T11:35:55.541Z,94064.66
2023-04-26T11:38:23.273Z,94058.72
2023-04-26T11:41:03.208Z,94070.84
2023-04-26T11:43:39.550Z,94065.25
2023-04-26T11:46:07.367Z,94063.31
2023-04-26T11:48:35.163Z,94069.53
2023-04-26T11:51:03.229Z,94073.53
2023-04-26T11:53:37.788Z,94068.88
2023-04-26T11:56:14.892Z,94062.94
2023-04-26T11:58:44.066Z,94058.09
2023-04-26T12:01:10.773Z,94055.25
2023-04-26T12:03:37.999Z,94054.56
2023-04-26T12:06:05.077Z,94050.59
2023-04-26T12:08:33.664Z,94049.69
2023-04-26T12:11:02.250Z,94047.31
2023-04-26T12:13:30.618Z,94050.00
2023-04-26T12:15:57.741Z,94050.28
2023-04-26T12:18:33.218Z,94049.81
2023-04-26T12:21:01.434Z,94044.75
2023-04-26T12:23:37.460Z,94034.25
2023-04-26T12:26:05.217Z,94058.22
2023-04-26T12:28:32.913Z,94050.47
2023-04-26T12:31:01.587Z,94046.47
2023-04-26T12:33:28.687Z,94042.03
2023-04-26T12:35:57.714Z,93989.13
2023-04-26T12:38:24.677Z,94022.59
2023-04-26T12:40:51.940Z,94052.78
2023-04-26T12:43:19.896Z,94050.03
2023-04-26T12:45:46.970Z,93998.09
2023-04-26T12:48:14.235Z,94051.66
2023-04-26T12:50:41.440Z,94060.72
2023-04-26T12:53:08.341Z,94047.34
2023-04-26T12:55:35.767Z,94044.34
2023-04-26T12:58:02.745Z,94050.97
2023-04-26T13:00:29.534Z,94056.75
2023-04-26T13:02:56.606Z,94054.84
2023-04-26T13:05:26.376Z,94047.72
2023-04-26T13:07:53.218Z,94053.34
2023-04-26T13:10:20.226Z,94066.59
2023-04-26T13:12:47.186Z,94074.16
2023-04-26T13:15:15.623Z,94080.41
2023-04-26T13:17:44.576Z,94077.00
2023-04-26T13:20:11.770Z,94086.75
2023-04-26T13:22:41.906Z,94076.44
2023-04-26T13:25:09.513Z,94093.47
2023-04-26T13:27:36.925Z,94091.97
2023-04-26T13:30:04.020Z,94084.91
2023-04-26T13:32:32.026Z,94100.13
2023-04-26T13:34:59.034Z,94086.06
2023-04-26T13:37:26.988Z,94101.97
2023-04-26T13:39:54.305Z,94097.56
2023-04-26T13:42:21.300Z,94095.53
2023-04-26T13:44:48.100Z,94106.97
2023-04-26T13:47:14.778Z,94106.03
2023-04-26T13:49:42.013Z,94111.31
2023-04-26T13:52:08.738Z,94107.03
2023-04-26T13:54:36.828Z,94125.44
2023-04-26T13:57:04.053Z,94135.59
2023-04-26T13:59:31.077Z,94122.22
2023-04-26T14:01:59.055Z,94129.91
2023-04-26T14:04:26.359Z,94135.28
2023-04-26T14:06:53.716Z,94141.44
2023-04-26T14:09:20.433Z,94131.81
2023-04-26T14:11:49.439Z,94142.22
2023-04-26T14:14:24.556Z,94149.38
2023-04-26T14:16:51.338Z,94145.38
2023-04-26T14:19:18.157Z,94146.22
2023-04-26T14:21:45.058Z,94150.38
2023-04-26T14:24:12.050Z,94162.38
2023-04-26T14:26:38.791Z,94158.50
2023-04-26T14:29:05.621Z,94157.25
2023-04-26T14:31:32.829Z,94169.00
2023-04-26T14:33:59.762Z,94164.66
2023-04-26T14:36:26.709Z,94170.53
2023-04-26T14:38:53.565Z,94167.72
2023-04-26T14:41:20.301Z,94167.22
2023-04-26T14:43:47.514Z,94168.41
2023-04-26T14:46:14.468Z,94186.16
2023-04-26T14:48:43.677Z,94170.13
2023-04-26T14:51:10.548Z,94193.13
2023-04-26T14:53:37.377Z,94189.22
2023-04-26T14:56:06.124Z,94197.59
2023-04-26T14:58:33.118Z,94208.03
2023-04-26T15:01:00.557Z,94211.81
2023-04-26T15:03:27.710Z,94210.44
2023-04-26T15:05:54.555Z,94221.50
2023-04-26T15:08:21.455Z,94233.91
2023-04-26T15:10:48.249Z,94220.84
2023-04-26T15:13:15.610Z,94210.88
2023-04-26T15:15:42.516Z,94220.00
2023-04-26T15:18:09.383Z,94228.69
2023-04-26T15:20:38.850Z,94236.97
2023-04-26T15:23:05.959Z,94235.38
2023-04-26T15:25:34.508Z,94253.84
2023-04-26T15:28:01.373Z,94260.25
2023-04-26T15:30:30.296Z,94248.22
2023-04-26T15:32:57.560Z,94268.06
2023-04-26T15:35:25.111Z,94262.75
2023-04-26T15:37:54.076Z,94259.28
2023-04-26T15:40:24.711Z,94275.38
2023-04-26T15:42:52.097Z,94270.25
2023-04-26T15:45:19.452Z,94257.97
2023-04-26T15:47:47.067Z,94268.69
2023-04-26T15:50:14.845Z,94270.28
2023-04-26T15:52:42.278Z,94273.50
2023-04-26T15:55:09.879Z,94273.75
2023-04-26T15:57:37.548Z,94283.13
2023-04-26T16:00:08.058Z,94284.47
2023-04-26T16:02:35.041Z,94287.16
2023-04-26T16:05:02.075Z,94288.19
2023-04-26T16:07:30.281Z,94300.50
2023-04-26T16:09:56.962Z,94298.38
2023-04-26T16:12:24.262Z,94301.03
2023-04-26T16:14:52.014Z,94293.84
2023-04-26T16:17:18.872Z,94302.63
2023-04-26T16:19:45.667Z,94302.91
2023-04-26T16:22:12.610Z,94309.06
2023-04-26T16:24:39.424Z,94313.63
2023-04-26T16:27:06.305Z,94317.38
2023-04-26T16:29:33.045Z,94323.22
2023-04-26T16:31:59.991Z,94325.09
2023-04-26T16:34:26.844Z,94327.22
2023-04-26T16:36:53.832Z,94336.31
2023-04-26T16:39:22.148Z,94327.50
2023-04-26T16:41:49.267Z,94339.28
2023-04-26T16:44:16.844Z,94332.59
2023-04-26T16:46:43.939Z,94340.31
2023-04-26T16:49:11.008Z,94341.13
2023-04-26T16:51:38.437Z,94342.72
2023-04-26T16:54:05.487Z,94345.41
2023-04-26T16:56:32.465Z,94345.38
2023-04-26T16:58:59.579Z,94351.53
2023-04-26T17:01:26.920Z,94348.59
2023-04-26T17:03:54.083Z,94358.47
2023-04-26T17:06:21.330Z,94361.41
2023-04-26T17:08:48.150Z,94364.59
2023-04-26T17:11:15.575Z,94367.56
2023-04-26T17:13:42.379Z,94369.69
2023-04-26T17:16:09.631Z,94372.34
2023-04-26T17:18:37.178Z,94384.63
2023-04-26T17:21:04.587Z,94385.72
2023-04-26T17:23:33.797Z,94387.03
2023-04-26T17:26:01.634Z,94401.72
2023-04-26T17:28:28.657Z,94399.03
2023-04-26T17:30:55.672Z,94401.97
2023-04-26T17:33:22.435Z,94404.38
2023-04-26T17:35:49.405Z,94405.75
2023-04-26T17:38:16.354Z,94397.19
2023-04-26T17:40:44.399Z,94408.66
2023-04-26T17:43:11.531Z,94409.47
2023-04-26T17:45:38.480Z,94412.94
2023-04-26T17:48:05.628Z,94396.63
2023-04-26T17:50:32.517Z,94404.63
2023-04-26T17:52:59.188Z,94415.31
2023-04-26T17:55:27.059Z,94414.75
2023-04-26T17:57:53.977Z,94423.84
2023-04-26T18:00:20.776Z,94432.66
2023-04-26T18:02:48.575Z,94426.28
2023-04-26T18:05:16.425Z,94439.66
2023-04-26T18:07:43.275Z,94442.56
2023-04-26T18:10:10.154Z,94446.25
2023-04-26T18:12:37.035Z,94449.75
2023-04-26T18:15:03.860Z,94451.38
2023-04-26T18:17:31.142Z,94461.03
2023-04-26T18:19:57.974Z,94458.06
2023-04-26T18:22:24.882Z,94467.16
2023-04-26T18:24:51.725Z,94481.31
2023-04-26T18:27:18.681Z,94478.38
2023-04-26T18:29:45.362Z,94479.47
2023-04-26T18:32:12.607Z,94482.13
2023-04-26T18:34:39.997Z,94492.25
2023-04-26T18:37:07.151Z,94484.25
2023-04-26T18:39:33.848Z,94494.94
2023-04-26T18:42:01.973Z,94495.72
2023-04-26T18:44:28.682Z,94491.97
2023-04-26T18:46:56.093Z,94495.97
2023-04-26T18:49:23.372Z,94493.03
2023-04-26T18:51:50.471Z,94495.44
2023-04-26T18:54:17.204Z,94491.19
2023-04-26T18:56:44.933Z,94490.63
2023-04-26T18:59:11.944Z,94496.97
2023-04-26T19:01:38.743Z,94503.41
2023-04-26T19:04:06.081Z,94506.59
2023-04-26T19:06:33.160Z,94505.50
2023-04-26T19:09:01.083Z,94500.47
2023-04-26T19:11:27.786Z,94506.50
2023-04-26T19:13:54.778Z,94512.44
2023-04-26T19:16:22.328Z,94501.25
2023-04-26T19:18:49.826Z,94502.84
2023-04-26T19:21:16.780Z,94509.28
2023-04-26T19:23:46.104Z,94514.91
2023-04-26T19:26:36.695Z,94518.09
2023-04-26T19:29:06.921Z,94521.56
2023-04-26T19:31:44.345Z,94522.06
2023-04-26T19:34:17.041Z,94514.56
2023-04-26T19:36:57.978Z,94526.56
2023-04-26T19:39:25.077Z,94532.97
2023-04-26T19:41:51.997Z,94530.31
2023-04-26T19:44:20.501Z,94529.44
2023-04-26T19:46:47.420Z,94525.47
2023-04-26T19:49:14.235Z,94533.75
2023-04-26T19:51:41.096Z,94512.31
2023-04-26T19:54:07.754Z,94534.47
2023-04-26T19:56:34.560Z,94546.66
2023-04-26T19:59:01.535Z,94551.44
2023-04-26T20:01:37.090Z,94551.72
2023-04-26T20:04:05.354Z,94542.66
2023-04-26T20:06:33.135Z,94551.19
2023-04-26T20:08:59.965Z,94568.44
2023-04-26T20:11:26.794Z,94548.72
2023-04-26T20:13:53.604Z,94558.13
2023-04-26T20:16:20.740Z,94557.75
2023-04-26T20:18:47.609Z,94560.44
2023-04-26T20:21:14.284Z,94556.69
2023-04-26T20:23:41.138Z,94555.63
2023-04-26T20:26:07.771Z,94563.88
2023-04-26T20:28:34.648Z,94550.75
2023-04-26T20:31:01.548Z,94559.31
2023-04-26T20:33:29.158Z,94565.13
2023-04-26T20:35:56.192Z,94558.19
2023-04-26T20:38:23.300Z,94556.06
2023-04-26T20:40:50.154Z,94566.13
2023-04-26T20:43:17.078Z,94561.59
2023-04-26T20:45:45.060Z,94564.00
2023-04-26T20:48:11.725Z,94568.00
2023-04-26T20:50:38.790Z,94575.25
2023-04-26T20:53:05.552Z,94574.94
2023-04-26T20:55:32.630Z,94577.81
2023-04-26T20:57:59.470Z,94580.25
2023-04-26T21:00:26.370Z,94569.03
2023-04-26T21:02:53.287Z,94589.31
2023-04-26T21:05:20.823Z,94591.19
2023-04-26T21:07:47.598Z,94596.25
2023-04-26T21:10:14.468Z,94589.69
2023-04-26T21:12:42.074Z,94590.25
2023-04-26T21:15:09.137Z,94597.16
2023-04-26T21:17:36.364Z,94601.16
2023-04-26T21:20:04.241Z,94600.53
2023-04-26T21:22:31.150Z,94604.25
2023-04-26T21:24:57.893Z,94610.94
2023-04-26T21:27:24.717Z,94610.44
2023-04-26T21:29:51.410Z,94613.84
2023-04-26T21:32:18.213Z,94611.75
2023-04-26T21:34:44.936Z,94619.25
2023-04-26T21:37:11.748Z,94621.59
2023-04-26T21:39:38.512Z,94626.06
2023-04-26T21:42:06.467Z,94623.34
2023-04-26T21:44:33.604Z,94628.97
2023-04-26T21:47:00.960Z,94622.09
2023-04-26T21:49:27.714Z,94632.19
2023-04-26T21:51:54.635Z,94630.47
2023-04-26T21:54:21.365Z,94641.69
2023-04-26T21:56:48.006Z,94639.53
2023-04-26T21:59:15.295Z,94640.91
2023-04-26T22:01:42.064Z,94647.13
2023-04-26T22:04:09.423Z,94640.44
2023-04-26T22:06:38.412Z,94652.25
2023-04-26T22:09:09.546Z,94656.16
2023-04-26T22:11:39.953Z,94659.50
2023-04-26T22:14:07.020Z,94649.09
2023-04-26T22:16:33.737Z,94663.41
2023-04-26T22:19:00.857Z,94656.94
2023-04-26T22:21:28.409Z,94665.34
2023-04-26T22:24:12.816Z,94658.47
2023-04-26T22:26:44.001Z,94666.66
2023-04-26T22:29:14.309Z,94669.81
2023-04-26T22:31:41.178Z,94675.72
2023-04-26T22:34:07.976Z,94674.16
2023-04-26T22:36:34.986Z,94669.38
2023-04-26T22:39:01.935Z,94676.81
2023-04-26T22:41:28.855Z,94679.66
2023-04-26T22:43:55.480Z,94680.03
2023-04-26T22:46:22.415Z,94679.19
2023-04-26T22:48:49.299Z,94675.19
2023-04-26T22:51:16.176Z,94681.63
2023-04-26T22:53:43.130Z,94680.88
2023-04-26T22:56:10.020Z,94682.47
2023-04-26T22:58:36.680Z,94685.66
2023-04-26T23:01:03.777Z,94686.84
2023-04-26T23:03:30.860Z,94685.16
2023-04-26T23:05:57.863Z,94681.28
2023-04-26T23:08:24.697Z,94690.09
2023-04-26T23:10:51.356Z,94682.44
2023-04-26T23:13:18.071Z,94678.41
2023-04-26T23:15:44.827Z,94681.06
2023-04-26T23:18:11.839Z,94675.25
2023-04-26T23:20:38.622Z,94675.34
2023-04-26T23:23:05.984Z,94679.88
2023-04-26T23:25:32.724Z,94674.59
2023-04-26T23:27:59.583Z,94676.22
2023-04-26T23:30:27.422Z,94674.22
2023-04-26T23:32:54.384Z,94668.66
2023-04-26T23:35:21.200Z,94675.91
2023-04-26T23:37:48.071Z,94670.94
2023-04-26T23:40:14.965Z,94674.53
2023-04-26T23:42:41.873Z,94673.50
2023-04-26T23:45:09.730Z,94670.84
2023-04-26T23:47:36.661Z,94677.44
2023-04-26T23:50:03.648Z,94679.44
2023-04-26T23:52:30.563Z,94677.09
2023-04-26T23:54:57.236Z,94682.66
2023-04-26T23:57:24.125Z,94679.63
2023-04-26T23:59:52.680Z,94680.81
